sensor_id;sensor_type;location;lat;lon;timestamp;pressure;altitude;pressure_sealevel;temperature;humidity
35647;BME280;28680;45.642;13.756;2023-04-07T00:02:20;101384.19;;;8.69;100.00
35647;BME280;28680;45.642;13.756;2023-04-07T00:04:45;101388.84;;;8.64;100.00
35647;BME280;28680;45.642;13.756;2023-04-07T00:07:11;101387.09;;;8.64;100.00
35647;BME280;28680;45.642;13.756;2023-04-07T00:09:37;101388.50;;;8.70;100.00
35647;BME280;28680;45.642;13.756;2023-04-07T00:12:03;101379.91;;;8.68;100.00
35647;BME280;28680;45.642;13.756;2023-04-07T00:14:29;101386.34;;;8.62;100.00
35647;BME280;28680;45.642;13.756;2023-04-07T00:16:55;101375.38;;;8.55;100.00
35647;BME280;28680;45.642;13.756;2023-04-07T00:19:21;101379.78;;;8.55;100.00
35647;BME280;28680;45.642;13.756;2023-04-07T00:21:47;101385.19;;;8.52;100.00
35647;BME280;28680;45.642;13.756;2023-04-07T00:24:12;101377.91;;;8.57;100.00
35647;BME280;28680;45.642;13.756;2023-04-07T00:26:38;101374.25;;;8.45;100.00
35647;BME280;28680;45.642;13.756;2023-04-07T00:29:04;101380.03;;;8.50;100.00
35647;BME280;28680;45.642;13.756;2023-04-07T00:31:30;101372.00;;;8.53;100.00
35647;BME280;28680;45.642;13.756;2023-04-07T00:33:56;101371.84;;;8.40;100.00
35647;BME280;28680;45.642;13.756;2023-04-07T00:36:22;101371.94;;;8.39;100.00
35647;BME280;28680;45.642;13.756;2023-04-07T00:38:48;101373.72;;;8.38;100.00
35647;BME280;28680;45.642;13.756;2023-04-07T00:41:14;101373.25;;;8.32;100.00
35647;BME280;28680;45.642;13.756;2023-04-07T00:43:40;101373.25;;;8.32;100.00
35647;BME280;28680;45.642;13.756;2023-04-07T00:46:06;101379.31;;;8.32;100.00
35647;BME280;28680;45.642;13.756;2023-04-07T00:48:32;101375.22;;;8.28;100.00
35647;BME280;28680;45.642;13.756;2023-04-07T00:50:58;101374.63;;;8.23;100.00
35647;BME280;28680;45.642;13.756;2023-04-07T00:53:24;101378.66;;;8.29;100.00
35647;BME280;28680;45.642;13.756;2023-04-07T00:55:50;101380.03;;;8.20;100.00
35647;BME280;28680;45.642;13.756;2023-04-07T00:58:15;101377.84;;;8.12;100.00
35647;BME280;28680;45.642;13.756;2023-04-07T01:01:03;101373.38;;;8.14;100.00
35647;BME280;28680;45.642;13.756;2023-04-07T01:04:00;101380.25;;;8.01;100.00
35647;BME280;28680;45.642;13.756;2023-04-07T01:06:33;101374.41;;;8.12;100.00
35647;BME280;28680;45.642;13.756;2023-04-07T01:09:40;101366.78;;;8.23;100.00
35647;BME280;28680;45.642;13.756;2023-04-07T01:12:04;101364.63;;;8.15;100.00
35647;BME280;28680;45.642;13.756;2023-04-07T01:14:39;101361.13;;;8.00;100.00
35647;BME280;28680;45.642;13.756;2023-04-07T01:17:06;101360.06;;;7.89;100.00
35647;BME280;28680;45.642;13.756;2023-04-07T01:22:30;101350.78;;;8.13;100.00
35647;BME280;28680;45.642;13.756;2023-04-07T01:25:52;101345.28;;;8.18;100.00
35647;BME280;28680;45.642;13.756;2023-04-07T01:31:22;101343.34;;;8.22;100.00
35647;BME280;28680;45.642;13.756;2023-04-07T01:33:51;101354.09;;;8.31;100.00
35647;BME280;28680;45.642;13.756;2023-04-07T01:36:20;101342.34;;;8.24;100.00
35647;BME280;28680;45.642;13.756;2023-04-07T01:38:48;101345.66;;;8.12;100.00
35647;BME280;28680;45.642;13.756;2023-04-07T01:41:16;101346.22;;;8.17;100.00
35647;BME280;28680;45.642;13.756;2023-04-07T01:43:42;101345.25;;;8.04;100.00
35647;BME280;28680;45.642;13.756;2023-04-07T01:46:08;101346.84;;;8.06;100.00
35647;BME280;28680;45.642;13.756;2023-04-07T01:48:35;101350.56;;;8.02;100.00
35647;BME280;28680;45.642;13.756;2023-04-07T01:51:04;101341.91;;;8.02;100.00
35647;BME280;28680;45.642;13.756;2023-04-07T01:53:31;101343.19;;;8.09;100.00
35647;BME280;28680;45.642;13.756;2023-04-07T01:55:57;101342.97;;;7.97;100.00
35647;BME280;28680;45.642;13.756;2023-04-07T01:58:23;101339.22;;;7.87;100.00
35647;BME280;28680;45.642;13.756;2023-04-07T02:00:50;101341.16;;;7.84;100.00
35647;BME280;28680;45.642;13.756;2023-04-07T02:06:34;101337.38;;;7.89;100.00
35647;BME280;28680;45.642;13.756;2023-04-07T02:09:06;101330.13;;;7.78;100.00
35647;BME280;28680;45.642;13.756;2023-04-07T02:11:35;101330.97;;;7.49;100.00
35647;BME280;28680;45.642;13.756;2023-04-07T02:14:03;101329.50;;;7.59;100.00
35647;BME280;28680;45.642;13.756;2023-04-07T02:16:32;101337.50;;;7.56;100.00
35647;BME280;28680;45.642;13.756;2023-04-07T02:18:58;101339.53;;;7.51;100.00
35647;BME280;28680;45.642;13.756;2023-04-07T02:21:26;101337.34;;;7.59;100.00
35647;BME280;28680;45.642;13.756;2023-04-07T02:23:52;101340.88;;;7.58;100.00
35647;BME280;28680;45.642;13.756;2023-04-07T02:26:18;101337.69;;;7.53;100.00
35647;BME280;28680;45.642;13.756;2023-04-07T02:28:44;101337.44;;;7.41;100.00
35647;BME280;28680;45.642;13.756;2023-04-07T02:31:10;101334.91;;;7.40;100.00
35647;BME280;28680;45.642;13.756;2023-04-07T02:33:38;101336.50;;;7.58;100.00
35647;BME280;28680;45.642;13.756;2023-04-07T02:36:04;101334.72;;;7.59;100.00
35647;BME280;28680;45.642;13.756;2023-04-07T02:38:31;101330.53;;;7.40;100.00
35647;BME280;28680;45.642;13.756;2023-04-07T02:40:57;101331.63;;;7.36;100.00
35647;BME280;28680;45.642;13.756;2023-04-07T02:43:23;101336.09;;;7.34;100.00
35647;BME280;28680;45.642;13.756;2023-04-07T02:45:50;101333.31;;;7.37;100.00
35647;BME280;28680;45.642;13.756;2023-04-07T02:48:16;101323.56;;;7.41;100.00
35647;BME280;28680;45.642;13.756;2023-04-07T02:50:42;101326.72;;;7.46;100.00
35647;BME280;28680;45.642;13.756;2023-04-07T02:53:08;101326.25;;;7.39;100.00
35647;BME280;28680;45.642;13.756;2023-04-07T02:55:33;101324.13;;;7.30;100.00
35647;BME280;28680;45.642;13.756;2023-04-07T02:57:59;101322.44;;;7.29;100.00
35647;BME280;28680;45.642;13.756;2023-04-07T03:00:25;101322.44;;;7.29;100.00
35647;BME280;28680;45.642;13.756;2023-04-07T03:02:51;101316.31;;;7.30;100.00
35647;BME280;28680;45.642;13.756;2023-04-07T03:05:17;101308.97;;;7.21;100.00
35647;BME280;28680;45.642;13.756;2023-04-07T03:07:43;101307.94;;;7.23;100.00
35647;BME280;28680;45.642;13.756;2023-04-07T03:10:09;101312.06;;;7.28;100.00
35647;BME280;28680;45.642;13.756;2023-04-07T03:12:35;101308.19;;;7.35;100.00
35647;BME280;28680;45.642;13.756;2023-04-07T03:15:01;101308.19;;;7.35;100.00
35647;BME280;28680;45.642;13.756;2023-04-07T03:17:27;101306.78;;;7.29;100.00
35647;BME280;28680;45.642;13.756;2023-04-07T03:19:53;101309.47;;;7.28;100.00
35647;BME280;28680;45.642;13.756;2023-04-07T03:22:18;101305.19;;;7.27;100.00
35647;BME280;28680;45.642;13.756;2023-04-07T03:24:44;101303.06;;;7.17;100.00
35647;BME280;28680;45.642;13.756;2023-04-07T03:27:10;101301.91;;;7.07;100.00
35647;BME280;28680;45.642;13.756;2023-04-07T03:29:36;101308.19;;;7.03;100.00
35647;BME280;28680;45.642;13.756;2023-04-07T03:32:02;101303.34;;;7.13;100.00
35647;BME280;28680;45.642;13.756;2023-04-07T03:34:28;101309.06;;;7.19;100.00
35647;BME280;28680;45.642;13.756;2023-04-07T03:36:53;101305.94;;;7.13;100.00
35647;BME280;28680;45.642;13.756;2023-04-07T03:39:19;101307.81;;;7.11;100.00
35647;BME280;28680;45.642;13.756;2023-04-07T03:41:45;101309.63;;;7.09;100.00
35647;BME280;28680;45.642;13.756;2023-04-07T03:44:11;101312.91;;;6.96;100.00
35647;BME280;28680;45.642;13.756;2023-04-07T03:46:37;101329.97;;;6.86;100.00
35647;BME280;28680;45.642;13.756;2023-04-07T03:49:03;101322.88;;;7.06;100.00
35647;BME280;28680;45.642;13.756;2023-04-07T03:51:29;101323.47;;;7.11;100.00
35647;BME280;28680;45.642;13.756;2023-04-07T03:53:54;101316.13;;;7.17;100.00
35647;BME280;28680;45.642;13.756;2023-04-07T03:56:20;101329.09;;;7.19;100.00
35647;BME280;28680;45.642;13.756;2023-04-07T03:58:47;101325.66;;;7.18;100.00
35647;BME280;28680;45.642;13.756;2023-04-07T04:01:13;101323.19;;;7.15;100.00
35647;BME280;28680;45.642;13.756;2023-04-07T04:03:39;101335.66;;;7.10;100.00
35647;BME280;28680;45.642;13.756;2023-04-07T04:06:05;101335.22;;;7.02;100.00
35647;BME280;28680;45.642;13.756;2023-04-07T04:08:31;101333.13;;;6.93;100.00
35647;BME280;28680;45.642;13.756;2023-04-07T04:10:57;101333.13;;;6.93;100.00
35647;BME280;28680;45.642;13.756;2023-04-07T04:13:23;101330.25;;;6.97;100.00
35647;BME280;28680;45.642;13.756;2023-04-07T04:15:49;101331.94;;;6.98;100.00
35647;BME280;28680;45.642;13.756;2023-04-07T04:18:15;101330.34;;;6.96;100.00
35647;BME280;28680;45.642;13.756;2023-04-07T04:20:42;101326.66;;;7.00;100.00
35647;BME280;28680;45.642;13.756;2023-04-07T04:23:08;101334.41;;;7.01;100.00
35647;BME280;28680;45.642;13.756;2023-04-07T04:25:34;101333.31;;;7.06;100.00
35647;BME280;28680;45.642;13.756;2023-04-07T04:28:00;101341.13;;;7.06;100.00
35647;BME280;28680;45.642;13.756;2023-04-07T04:30:26;101336.25;;;6.99;100.00
35647;BME280;28680;45.642;13.756;2023-04-07T04:32:52;101347.34;;;7.03;100.00
35647;BME280;28680;45.642;13.756;2023-04-07T04:35:18;101338.44;;;7.07;100.00
35647;BME280;28680;45.642;13.756;2023-04-07T04:37:43;101332.63;;;7.18;100.00
35647;BME280;28680;45.642;13.756;2023-04-07T04:40:10;101339.13;;;7.27;100.00
35647;BME280;28680;45.642;13.756;2023-04-07T04:42:36;101338.59;;;7.20;100.00
35647;BME280;28680;45.642;13.756;2023-04-07T04:45:02;101342.66;;;7.10;100.00
35647;BME280;28680;45.642;13.756;2023-04-07T04:47:28;101338.34;;;7.09;100.00
35647;BME280;28680;45.642;13.756;2023-04-07T04:49:54;101334.91;;;7.08;100.00
35647;BME280;28680;45.642;13.756;2023-04-07T04:52:20;101330.44;;;7.10;100.00
35647;BME280;28680;45.642;13.756;2023-04-07T04:54:46;101335.41;;;7.15;100.00
35647;BME280;28680;45.642;13.756;2023-04-07T04:57:15;101330.88;;;7.18;100.00
35647;BME280;28680;45.642;13.756;2023-04-07T04:59:41;101334.66;;;7.13;100.00
35647;BME280;28680;45.642;13.756;2023-04-07T05:02:07;101344.16;;;7.14;100.00
35647;BME280;28680;45.642;13.756;2023-04-07T05:04:33;101340.88;;;7.10;100.00
35647;BME280;28680;45.642;13.756;2023-04-07T05:06:59;101344.91;;;7.00;100.00
35647;BME280;28680;45.642;13.756;2023-04-07T05:09:25;101345.69;;;7.02;100.00
35647;BME280;28680;45.642;13.756;2023-04-07T05:11:51;101345.69;;;7.02;100.00
35647;BME280;28680;45.642;13.756;2023-04-07T05:14:17;101341.38;;;7.01;100.00
35647;BME280;28680;45.642;13.756;2023-04-07T05:16:43;101342.13;;;7.03;100.00
35647;BME280;28680;45.642;13.756;2023-04-07T05:19:09;101335.56;;;7.12;100.00
35647;BME280;28680;45.642;13.756;2023-04-07T05:21:35;101328.09;;;7.21;100.00
35647;BME280;28680;45.642;13.756;2023-04-07T05:24:01;101333.06;;;7.26;100.00
35647;BME280;28680;45.642;13.756;2023-04-07T05:26:27;101337.69;;;7.21;100.00
35647;BME280;28680;45.642;13.756;2023-04-07T05:28:53;101337.78;;;7.19;100.00
35647;BME280;28680;45.642;13.756;2023-04-07T05:31:18;101335.69;;;7.26;100.00
35647;BME280;28680;45.642;13.756;2023-04-07T05:33:44;101335.50;;;7.29;100.00
35647;BME280;28680;45.642;13.756;2023-04-07T05:36:10;101336.75;;;7.38;100.00
35647;BME280;28680;45.642;13.756;2023-04-07T05:38:36;101341.56;;;7.46;100.00
35647;BME280;28680;45.642;13.756;2023-04-07T05:41:02;101346.63;;;7.49;100.00
35647;BME280;28680;45.642;13.756;2023-04-07T05:43:27;101339.13;;;7.58;100.00
35647;BME280;28680;45.642;13.756;2023-04-07T05:45:53;101340.25;;;7.69;100.00
35647;BME280;28680;45.642;13.756;2023-04-07T05:48:19;101341.59;;;7.76;100.00
35647;BME280;28680;45.642;13.756;2023-04-07T05:50:45;101343.94;;;7.80;100.00
35647;BME280;28680;45.642;13.756;2023-04-07T05:53:11;101342.88;;;7.85;100.00
35647;BME280;28680;45.642;13.756;2023-04-07T05:55:36;101341.69;;;7.74;100.00
35647;BME280;28680;45.642;13.756;2023-04-07T05:58:02;101344.16;;;7.61;100.00
35647;BME280;28680;45.642;13.756;2023-04-07T06:00:29;101344.91;;;7.64;100.00
35647;BME280;28680;45.642;13.756;2023-04-07T06:02:54;101344.75;;;7.67;100.00
35647;BME280;28680;45.642;13.756;2023-04-07T06:05:20;101353.41;;;7.67;100.00
35647;BME280;28680;45.642;13.756;2023-04-07T06:07:46;101350.56;;;7.72;100.00
35647;BME280;28680;45.642;13.756;2023-04-07T06:10:12;101350.94;;;7.80;100.00
35647;BME280;28680;45.642;13.756;2023-04-07T06:12:38;101349.00;;;7.84;100.00
35647;BME280;28680;45.642;13.756;2023-04-07T06:15:04;101349.44;;;7.76;100.00
35647;BME280;28680;45.642;13.756;2023-04-07T06:17:30;101356.03;;;8.28;100.00
35647;BME280;28680;45.642;13.756;2023-04-07T06:19:56;101357.69;;;8.14;100.00
35647;BME280;28680;45.642;13.756;2023-04-07T06:22:22;101359.22;;;8.18;100.00
35647;BME280;28680;45.642;13.756;2023-04-07T06:24:48;101353.13;;;8.48;100.00
35647;BME280;28680;45.642;13.756;2023-04-07T06:27:13;101352.31;;;8.62;100.00
35647;BME280;28680;45.642;13.756;2023-04-07T06:29:39;101351.38;;;8.77;100.00
35647;BME280;28680;45.642;13.756;2023-04-07T06:32:05;101348.75;;;8.92;100.00
35647;BME280;28680;45.642;13.756;2023-04-07T06:34:32;101355.19;;;9.01;100.00
35647;BME280;28680;45.642;13.756;2023-04-07T06:36:57;101352.09;;;9.08;100.00
35647;BME280;28680;45.642;13.756;2023-04-07T06:39:26;101351.63;;;9.16;100.00
35647;BME280;28680;45.642;13.756;2023-04-07T06:41:51;101347.19;;;9.31;100.00
35647;BME280;28680;45.642;13.756;2023-04-07T06:44:17;101346.91;;;9.35;100.00
35647;BME280;28680;45.642;13.756;2023-04-07T06:46:43;101349.91;;;9.44;100.00
35647;BME280;28680;45.642;13.756;2023-04-07T06:49:12;101346.13;;;9.48;100.00
35647;BME280;28680;45.642;13.756;2023-04-07T06:51:37;101352.56;;;9.56;100.00
35647;BME280;28680;45.642;13.756;2023-04-07T06:54:03;101349.47;;;9.64;100.00
35647;BME280;28680;45.642;13.756;2023-04-07T06:56:32;101350.03;;;9.82;100.00
35647;BME280;28680;45.642;13.756;2023-04-07T06:58:58;101350.06;;;9.95;100.00
35647;BME280;28680;45.642;13.756;2023-04-07T07:01:24;101355.50;;;9.92;100.00
35647;BME280;28680;45.642;13.756;2023-04-07T07:03:50;101353.84;;;9.91;100.00
35647;BME280;28680;45.642;13.756;2023-04-07T07:06:15;101353.84;;;9.91;100.00
35647;BME280;28680;45.642;13.756;2023-04-07T07:08:41;101354.91;;;10.01;100.00
35647;BME280;28680;45.642;13.756;2023-04-07T07:11:07;101356.09;;;10.10;100.00
35647;BME280;28680;45.642;13.756;2023-04-07T07:13:33;101356.94;;;10.23;100.00
35647;BME280;28680;45.642;13.756;2023-04-07T07:15:59;101355.41;;;10.33;100.00
35647;BME280;28680;45.642;13.756;2023-04-07T07:18:25;101355.31;;;10.35;100.00
35647;BME280;28680;45.642;13.756;2023-04-07T07:20:50;101359.94;;;10.57;100.00
35647;BME280;28680;45.642;13.756;2023-04-07T07:23:16;101353.63;;;10.60;100.00
35647;BME280;28680;45.642;13.756;2023-04-07T07:25:42;101362.25;;;10.75;100.00
35647;BME280;28680;45.642;13.756;2023-04-07T07:28:08;101351.63;;;10.89;100.00
35647;BME280;28680;45.642;13.756;2023-04-07T07:30:34;101358.63;;;11.01;100.00
35647;BME280;28680;45.642;13.756;2023-04-07T07:33:00;101359.47;;;11.15;100.00
35647;BME280;28680;45.642;13.756;2023-04-07T07:35:26;101354.31;;;11.13;100.00
35647;BME280;28680;45.642;13.756;2023-04-07T07:37:52;101360.16;;;11.29;100.00
35647;BME280;28680;45.642;13.756;2023-04-07T07:40:18;101362.69;;;11.31;100.00
35647;BME280;28680;45.642;13.756;2023-04-07T07:42:45;101358.59;;;11.51;100.00
35647;BME280;28680;45.642;13.756;2023-04-07T07:45:11;101353.91;;;11.67;100.00
35647;BME280;28680;45.642;13.756;2023-04-07T07:47:39;101356.03;;;11.86;100.00
35647;BME280;28680;45.642;13.756;2023-04-07T07:50:05;101358.16;;;12.05;100.00
35647;BME280;28680;45.642;13.756;2023-04-07T07:52:31;101353.03;;;12.15;100.00
35647;BME280;28680;45.642;13.756;2023-04-07T07:54:57;101351.66;;;12.34;100.00
35647;BME280;28680;45.642;13.756;2023-04-07T07:57:23;101347.50;;;12.42;100.00
35647;BME280;28680;45.642;13.756;2023-04-07T07:59:49;101350.25;;;12.41;100.00
35647;BME280;28680;45.642;13.756;2023-04-07T08:02:14;101342.94;;;12.44;100.00
35647;BME280;28680;45.642;13.756;2023-04-07T08:04:40;101349.31;;;12.64;100.00
35647;BME280;28680;45.642;13.756;2023-04-07T08:07:06;101345.50;;;12.91;100.00
35647;BME280;28680;45.642;13.756;2023-04-07T08:09:32;101343.06;;;13.11;100.00
35647;BME280;28680;45.642;13.756;2023-04-07T08:11:58;101343.91;;;13.34;100.00
35647;BME280;28680;45.642;13.756;2023-04-07T08:14:24;101346.75;;;13.42;100.00
35647;BME280;28680;45.642;13.756;2023-04-07T08:16:50;101344.66;;;13.57;100.00
35647;BME280;28680;45.642;13.756;2023-04-07T08:19:16;101350.25;;;13.75;100.00
35647;BME280;28680;45.642;13.756;2023-04-07T08:21:42;101353.81;;;13.85;100.00
35647;BME280;28680;45.642;13.756;2023-04-07T08:24:08;101359.50;;;14.01;100.00
35647;BME280;28680;45.642;13.756;2023-04-07T08:26:36;101359.63;;;14.21;100.00
35647;BME280;28680;45.642;13.756;2023-04-07T08:29:02;101351.28;;;14.37;100.00
35647;BME280;28680;45.642;13.756;2023-04-07T08:31:28;101349.97;;;14.52;100.00
35647;BME280;28680;45.642;13.756;2023-04-07T08:33:54;101353.31;;;14.54;100.00
35647;BME280;28680;45.642;13.756;2023-04-07T08:36:24;101346.47;;;14.73;100.00
35647;BME280;28680;45.642;13.756;2023-04-07T08:38:50;101345.13;;;14.78;100.00
35647;BME280;28680;45.642;13.756;2023-04-07T08:41:28;101343.34;;;14.89;100.00
35647;BME280;28680;45.642;13.756;2023-04-07T08:43:57;101337.38;;;14.96;100.00
35647;BME280;28680;45.642;13.756;2023-04-07T08:46:24;101338.66;;;15.12;100.00
35647;BME280;28680;45.642;13.756;2023-04-07T08:48:51;101336.09;;;15.31;93.84
35647;BME280;28680;45.642;13.756;2023-04-07T08:51:30;101330.00;;;15.50;100.00
35647;BME280;28680;45.642;13.756;2023-04-07T08:54:09;101332.22;;;15.65;96.52
35647;BME280;28680;45.642;13.756;2023-04-07T08:56:40;101326.25;;;15.82;89.29
35647;BME280;28680;45.642;13.756;2023-04-07T08:59:10;101323.44;;;15.93;82.72
35647;BME280;28680;45.642;13.756;2023-04-07T09:01:36;101328.59;;;16.05;81.07
35647;BME280;28680;45.642;13.756;2023-04-07T09:04:04;101322.69;;;16.30;78.34
35647;BME280;28680;45.642;13.756;2023-04-07T09:06:33;101314.22;;;16.27;76.06
35647;BME280;28680;45.642;13.756;2023-04-07T09:09:02;101318.84;;;16.62;72.80
35647;BME280;28680;45.642;13.756;2023-04-07T09:11:37;101318.94;;;16.70;81.26
35647;BME280;28680;45.642;13.756;2023-04-07T09:14:04;101317.44;;;16.95;69.70
35647;BME280;28680;45.642;13.756;2023-04-07T09:16:30;101309.28;;;17.07;74.66
35647;BME280;28680;45.642;13.756;2023-04-07T09:18:57;101312.66;;;17.09;72.32
35647;BME280;28680;45.642;13.756;2023-04-07T09:21:23;101312.44;;;17.20;68.84
35647;BME280;28680;45.642;13.756;2023-04-07T09:23:50;101312.44;;;17.20;77.93
35647;BME280;28680;45.642;13.756;2023-04-07T09:26:27;101303.00;;;17.36;71.72
35647;BME280;28680;45.642;13.756;2023-04-07T09:28:59;101299.72;;;17.42;68.96
35647;BME280;28680;45.642;13.756;2023-04-07T09:31:49;101296.22;;;17.59;65.81
35647;BME280;28680;45.642;13.756;2023-04-07T09:34:37;101295.34;;;17.86;63.79
35647;BME280;28680;45.642;13.756;2023-04-07T09:37:05;101296.84;;;17.89;61.84
35647;BME280;28680;45.642;13.756;2023-04-07T09:39:32;101299.78;;;17.86;62.88
35647;BME280;28680;45.642;13.756;2023-04-07T09:41:58;101299.69;;;17.96;60.88
35647;BME280;28680;45.642;13.756;2023-04-07T09:44:39;101292.75;;;18.21;60.93
35647;BME280;28680;45.642;13.756;2023-04-07T09:47:08;101290.16;;;18.37;60.58
35647;BME280;28680;45.642;13.756;2023-04-07T09:49:52;101286.94;;;18.51;56.93
35647;BME280;28680;45.642;13.756;2023-04-07T09:52:22;101283.03;;;18.72;54.89
35647;BME280;28680;45.642;13.756;2023-04-07T09:54:48;101280.16;;;18.65;55.28
35647;BME280;28680;45.642;13.756;2023-04-07T09:57:16;101284.59;;;18.83;54.14
35647;BME280;28680;45.642;13.756;2023-04-07T09:59:43;101273.47;;;18.87;54.95
35647;BME280;28680;45.642;13.756;2023-04-07T10:02:10;101275.16;;;19.05;54.79
35647;BME280;28680;45.642;13.756;2023-04-07T10:04:37;101269.22;;;19.11;54.43
35647;BME280;28680;45.642;13.756;2023-04-07T10:07:05;101265.84;;;19.01;52.25
35647;BME280;28680;45.642;13.756;2023-04-07T10:09:31;101267.38;;;19.12;53.11
35647;BME280;28680;45.642;13.756;2023-04-07T10:11:58;101265.72;;;19.11;52.39
35647;BME280;28680;45.642;13.756;2023-04-07T10:14:31;101263.25;;;19.25;52.32
35647;BME280;28680;45.642;13.756;2023-04-07T10:17:01;101256.78;;;19.44;52.04
35647;BME280;28680;45.642;13.756;2023-04-07T10:19:31;101257.59;;;19.37;51.00
35647;BME280;28680;45.642;13.756;2023-04-07T10:22:00;101257.75;;;19.35;50.35
35647;BME280;28680;45.642;13.756;2023-04-07T10:25:10;101260.47;;;19.76;50.83
35647;BME280;28680;45.642;13.756;2023-04-07T10:27:51;101257.63;;;19.86;50.01
35647;BME280;28680;45.642;13.756;2023-04-07T10:30:28;101255.31;;;19.83;51.55
35647;BME280;28680;45.642;13.756;2023-04-07T10:32:55;101251.50;;;19.77;50.13
35647;BME280;28680;45.642;13.756;2023-04-07T10:35:22;101254.28;;;19.84;50.88
35647;BME280;28680;45.642;13.756;2023-04-07T10:40:32;101256.44;;;19.31;50.18
35647;BME280;28680;45.642;13.756;2023-04-07T10:42:59;101253.41;;;19.26;53.01
35647;BME280;28680;45.642;13.756;2023-04-07T10:48:11;101242.44;;;19.37;54.33
35647;BME280;28680;45.642;13.756;2023-04-07T10:50:38;101234.81;;;19.51;55.35
35647;BME280;28680;45.642;13.756;2023-04-07T10:53:12;101239.31;;;19.50;53.61
35647;BME280;28680;45.642;13.756;2023-04-07T10:58:29;101234.63;;;19.68;55.23
35647;BME280;28680;45.642;13.756;2023-04-07T11:03:39;101240.47;;;19.56;52.65
35647;BME280;28680;45.642;13.756;2023-04-07T11:06:08;101235.00;;;19.74;52.55
35647;BME280;28680;45.642;13.756;2023-04-07T11:08:37;101231.81;;;19.62;51.54
35647;BME280;28680;45.642;13.756;2023-04-07T11:11:05;101227.31;;;19.54;52.25
35647;BME280;28680;45.642;13.756;2023-04-07T11:13:48;101224.34;;;19.33;51.21
35647;BME280;28680;45.642;13.756;2023-04-07T11:16:19;101215.63;;;18.98;51.59
35647;BME280;28680;45.642;13.756;2023-04-07T11:18:58;101220.66;;;19.25;52.43
35647;BME280;28680;45.642;13.756;2023-04-07T11:21:24;101223.31;;;19.17;54.51
35647;BME280;28680;45.642;13.756;2023-04-07T11:23:50;101226.00;;;19.25;59.83
35647;BME280;28680;45.642;13.756;2023-04-07T11:26:17;101224.63;;;19.05;62.30
35647;BME280;28680;45.642;13.756;2023-04-07T11:28:48;101226.50;;;19.45;60.14
35647;BME280;28680;45.642;13.756;2023-04-07T11:31:29;101225.47;;;19.71;60.85
35647;BME280;28680;45.642;13.756;2023-04-07T11:34:02;101220.84;;;19.73;60.32
35647;BME280;28680;45.642;13.756;2023-04-07T11:36:32;101217.31;;;19.81;61.49
35647;BME280;28680;45.642;13.756;2023-04-07T11:38:59;101219.66;;;19.67;60.45
35647;BME280;28680;45.642;13.756;2023-04-07T11:41:29;101223.50;;;19.65;59.95
35647;BME280;28680;45.642;13.756;2023-04-07T11:44:10;101222.19;;;19.77;61.45
35647;BME280;28680;45.642;13.756;2023-04-07T11:46:57;101223.00;;;19.78;66.71
35647;BME280;28680;45.642;13.756;2023-04-07T11:49:26;101219.00;;;19.65;69.88
35647;BME280;28680;45.642;13.756;2023-04-07T11:52:02;101225.34;;;19.73;70.57
35647;BME280;28680;45.642;13.756;2023-04-07T11:57:07;101217.84;;;19.76;75.96
35647;BME280;28680;45.642;13.756;2023-04-07T11:59:35;101210.34;;;19.72;76.90
35647;BME280;28680;45.642;13.756;2023-04-07T12:02:01;101212.69;;;19.66;83.24
35647;BME280;28680;45.642;13.756;2023-04-07T12:04:28;101211.69;;;19.51;87.98
35647;BME280;28680;45.642;13.756;2023-04-07T12:06:54;101208.38;;;19.49;90.95
35647;BME280;28680;45.642;13.756;2023-04-07T12:09:33;101203.19;;;19.39;92.09
35647;BME280;28680;45.642;13.756;2023-04-07T12:12:05;101209.19;;;19.50;93.99
35647;BME280;28680;45.642;13.756;2023-04-07T12:14:33;101211.50;;;19.53;100.00
35647;BME280;28680;45.642;13.756;2023-04-07T12:17:02;101213.16;;;19.62;92.86
35647;BME280;28680;45.642;13.756;2023-04-07T12:19:30;101206.50;;;19.58;97.66
35647;BME280;28680;45.642;13.756;2023-04-07T12:22:00;101216.00;;;19.68;100.00
35647;BME280;28680;45.642;13.756;2023-04-07T12:24:26;101207.00;;;19.70;99.99
35647;BME280;28680;45.642;13.756;2023-04-07T12:26:53;101200.84;;;19.85;96.82
35647;BME280;28680;45.642;13.756;2023-04-07T12:29:18;101203.03;;;19.82;88.98
35647;BME280;28680;45.642;13.756;2023-04-07T12:31:45;101204.00;;;19.89;83.55
35647;BME280;28680;45.642;13.756;2023-04-07T12:34:10;101194.59;;;20.18;91.10
35647;BME280;28680;45.642;13.756;2023-04-07T12:36:36;101191.22;;;20.32;97.86
35647;BME280;28680;45.642;13.756;2023-04-07T12:39:02;101197.22;;;20.26;96.25
35647;BME280;28680;45.642;13.756;2023-04-07T12:41:29;101194.94;;;20.15;92.86
35647;BME280;28680;45.642;13.756;2023-04-07T12:43:55;101190.97;;;20.50;94.15
35647;BME280;28680;45.642;13.756;2023-04-07T12:46:21;101189.59;;;20.62;94.91
35647;BME280;28680;45.642;13.756;2023-04-07T12:48:47;101191.88;;;20.74;94.55
35647;BME280;28680;45.642;13.756;2023-04-07T12:51:14;101178.00;;;20.78;88.50
35647;BME280;28680;45.642;13.756;2023-04-07T12:53:39;101183.97;;;20.80;85.57
35647;BME280;28680;45.642;13.756;2023-04-07T12:56:06;101181.47;;;20.87;78.02
35647;BME280;28680;45.642;13.756;2023-04-07T12:58:32;101187.06;;;20.92;83.83
35647;BME280;28680;45.642;13.756;2023-04-07T13:00:57;101181.09;;;20.90;85.77
35647;BME280;28680;45.642;13.756;2023-04-07T13:03:25;101182.28;;;20.88;88.95
35647;BME280;28680;45.642;13.756;2023-04-07T13:05:51;101175.28;;;21.10;80.27